Time;durP1;ratioP1;P1;durP2;ratioP2;P2;SDS_P1;SDS_P2;PMS_P1;PMS_P2;Temp;Humidity;BMP_temperature;BMP_pressure;BME280_temperature;BME280_humidity;BME280_pressure;Samples;Min_cycle;Max_cycle;Signal;HPM_P1;HPM_P2
2023/09/25 00:01:48;;;;;;;3.60;2.80;;;;;;;13.91;67.07;99090.72;5055559;28;20048;-73
2023/09/25 00:04:13;;;;;;;2.95;2.70;;;;;;;14.01;67.45;99117.16;5055131;28;20065;-74
2023/09/25 00:06:38;;;;;;;4.82;3.20;;;;;;;14.01;67.76;99111.75;5073253;28;20107;-74
2023/09/25 00:09:05;;;;;;;3.38;2.70;;;;;;;13.95;67.51;99108.13;5055499;28;20480;-72
2023/09/25 00:11:31;;;;;;;4.22;2.95;;;;;;;13.98;67.33;99109.53;5071719;28;20028;-74
2023/09/25 00:13:56;;;;;;;4.93;2.72;;;;;;;13.96;67.27;99103.53;5054928;28;20028;-74
2023/09/25 00:16:22;;;;;;;5.32;2.60;;;;;;;13.93;67.30;99104.03;5054957;28;20571;-72
2023/09/25 00:18:47;;;;;;;3.95;2.80;;;;;;;13.99;67.69;99105.75;5055203;28;20047;-74
2023/09/25 00:21:13;;;;;;;3.05;2.75;;;;;;;14.04;67.15;99105.84;5055124;28;20021;-72
2023/09/25 00:23:38;;;;;;;3.92;2.72;;;;;;;13.86;67.05;99082.53;5072628;28;20459;-72
2023/09/25 00:26:06;;;;;;;5.05;2.58;;;;;;;13.90;66.76;99089.09;5055027;28;20035;-73
2023/09/25 00:28:32;;;;;;;5.18;3.00;;;;;;;14.00;67.12;99091.97;5044528;28;20041;-73
2023/09/25 00:30:57;;;;;;;3.03;2.72;;;;;;;13.92;67.24;99080.72;5021689;28;20025;-74
2023/09/25 00:33:24;;;;;;;4.22;2.65;;;;;;;14.05;66.57;99091.25;5054892;28;20449;-73
2023/09/25 00:35:49;;;;;;;4.50;2.55;;;;;;;14.03;66.99;99099.59;5054262;28;20165;-73
2023/09/25 00:38:14;;;;;;;3.75;2.72;;;;;;;13.96;66.91;99090.81;5054685;28;20511;-73
2023/09/25 00:40:40;;;;;;;4.50;2.90;;;;;;;14.02;66.53;99097.16;5054674;28;20024;-74
2023/09/25 00:43:08;;;;;;;4.38;3.13;;;;;;;13.94;66.53;99081.28;5054164;28;20504;-74
2023/09/25 00:45:37;;;;;;;3.38;2.40;;;;;;;14.00;66.85;99089.28;5052066;28;20127;-73
2023/09/25 00:48:04;;;;;;;3.20;2.55;;;;;;;14.03;66.17;99087.94;5051147;28;20033;-73
2023/09/25 00:50:31;;;;;;;4.63;2.78;;;;;;;13.94;66.56;99079.41;5049876;28;20023;-73
2023/09/25 00:53:01;;;;;;;4.85;2.55;;;;;;;13.95;66.30;99078.34;5035146;28;20037;-73
2023/09/25 00:55:27;;;;;;;3.60;2.85;;;;;;;13.98;66.45;99082.47;5033018;28;20033;-73
2023/09/25 00:57:52;;;;;;;2.65;2.45;;;;;;;13.74;66.37;99041.97;5054384;28;20115;-73
2023/09/25 01:00:18;;;;;;;3.00;2.72;;;;;;;13.88;66.18;99070.34;5054297;28;20123;-73
2023/09/25 01:02:43;;;;;;;3.08;2.70;;;;;;;14.00;66.65;99088.44;5054198;28;20019;-74
2023/09/25 01:05:09;;;;;;;3.03;2.63;;;;;;;13.92;66.45;99083.41;5035880;28;20563;-71
2023/09/25 01:07:36;;;;;;;3.60;2.80;;;;;;;13.94;66.63;99078.56;5036718;28;20035;-72
2023/09/25 01:10:13;;;;;;;4.18;2.95;;;;;;;13.90;66.24;99063.88;5054033;28;20033;-73
2023/09/25 01:12:38;;;;;;;2.90;2.63;;;;;;;13.92;66.71;99078.84;5054132;28;20044;-73
2023/09/25 01:15:05;;;;;;;4.80;3.05;;;;;;;13.94;66.78;99084.81;5053356;28;20024;-73
2023/09/25 01:17:31;;;;;;;3.95;2.88;;;;;;;13.90;67.20;99078.25;5071885;28;20090;-73
2023/09/25 01:19:57;;;;;;;3.70;2.45;;;;;;;13.87;66.79;99076.03;5053937;28;20026;-73
2023/09/25 01:22:22;;;;;;;2.92;2.65;;;;;;;13.84;67.34;99074.63;5053963;28;20111;-74
2023/09/25 01:24:48;;;;;;;2.88;2.58;;;;;;;13.88;67.21;99079.56;5053232;28;20024;-74
2023/09/25 01:27:13;;;;;;;4.47;3.20;;;;;;;13.84;66.75;99080.03;5037114;28;20438;-73
2023/09/25 01:29:39;;;;;;;4.25;2.83;;;;;;;13.78;67.22;99072.91;5071688;28;20028;-73
2023/09/25 01:32:04;;;;;;;3.20;2.90;;;;;;;13.81;67.30;99072.44;5071533;28;20033;-73
2023/09/25 01:34:31;;;;;;;5.07;2.75;;;;;;;13.79;67.65;99073.72;5053127;28;20107;-73
2023/09/25 01:36:56;;;;;;;4.05;2.90;;;;;;;13.79;67.79;99071.81;5050180;28;20511;-72
2023/09/25 01:39:22;;;;;;;3.83;2.65;;;;;;;13.78;67.43;99066.66;5052777;28;20017;-73
2023/09/25 01:41:47;;;;;;;3.25;2.83;;;;;;;13.55;68.37;99037.00;5053555;28;20059;-73
2023/09/25 01:44:12;;;;;;;4.63;2.80;;;;;;;13.66;67.53;99050.47;5036517;28;20099;-73
2023/09/25 01:46:40;;;;;;;3.85;2.90;;;;;;;13.64;67.52;99036.38;5053562;28;20450;-72
2023/09/25 01:49:07;;;;;;;3.85;2.92;;;;;;;13.66;67.76;99045.06;5033678;28;20028;-74
2023/09/25 01:51:32;;;;;;;4.22;2.75;;;;;;;13.70;67.83;99056.22;5040389;28;20025;-73
2023/09/25 01:53:57;;;;;;;3.47;3.17;;;;;;;13.52;68.01;99024.78;5029688;28;20033;-73
2023/09/25 01:56:23;;;;;;;4.35;3.20;;;;;;;13.67;68.57;99052.13;5052488;28;20036;-72
2023/09/25 01:58:48;;;;;;;3.17;2.88;;;;;;;13.46;68.32;99011.41;5069866;28;20107;-73
2023/09/25 02:01:13;;;;;;;3.40;3.10;;;;;;;13.60;68.53;99046.06;5036659;28;20051;-73
2023/09/25 02:03:41;;;;;;;4.35;3.65;;;;;;;13.61;68.50;99047.69;5069310;28;20012;-72
2023/09/25 02:06:07;;;;;;;4.05;3.33;;;;;;;13.49;68.69;99022.56;5052897;28;20111;-72
2023/09/25 02:08:32;;;;;;;4.35;3.72;;;;;;;13.62;67.88;99043.09;5053186;28;20044;-72
2023/09/25 02:10:58;;;;;;;3.70;3.38;;;;;;;13.45;67.74;99021.41;5069740;28;20074;-73
2023/09/25 02:13:23;;;;;;;3.92;3.53;;;;;;;13.63;67.67;99042.00;5036368;28;20028;-72
2023/09/25 02:15:49;;;;;;;4.18;3.50;;;;;;;13.51;67.60;99025.84;5069163;28;20036;-74
2023/09/25 02:18:14;;;;;;;4.93;3.28;;;;;;;13.60;67.48;99040.63;5036416;28;20500;-72
2023/09/25 02:20:39;;;;;;;4.88;3.40;;;;;;;13.54;67.79;99038.88;5052764;28;20043;-72
2023/09/25 02:23:05;;;;;;;3.80;3.45;;;;;;;13.46;67.51;99020.34;5069769;28;20051;-72
2023/09/25 02:25:30;;;;;;;3.90;3.50;;;;;;;13.44;67.62;99022.44;5052809;28;20032;-73
2023/09/25 02:27:56;;;;;;;3.40;3.10;;;;;;;13.53;67.40;99025.59;5035715;28;20534;-72
2023/09/25 02:30:21;;;;;;;4.35;3.10;;;;;;;13.37;67.22;99007.44;5049738;28;20036;-72
2023/09/25 02:32:47;;;;;;;4.45;3.40;;;;;;;13.54;67.37;99025.34;5048645;28;20029;-71
2023/09/25 02:35:13;;;;;;;3.20;2.90;;;;;;;13.55;67.47;99021.59;5052422;28;20496;-73
2023/09/25 02:37:40;;;;;;;3.67;3.15;;;;;;;13.39;67.18;99008.84;5035216;28;20382;-71
2023/09/25 02:40:07;;;;;;;4.28;2.90;;;;;;;13.42;66.99;99007.56;5036466;28;20033;-71
2023/09/25 02:42:32;;;;;;;4.75;3.38;;;;;;;13.54;67.46;99016.41;5036300;28;20039;-71
2023/09/25 02:44:59;;;;;;;4.43;3.20;;;;;;;13.51;67.50;99017.72;5052778;28;20039;-72
2023/09/25 02:47:24;;;;;;;4.15;2.90;;;;;;;13.39;66.86;99000.75;5052786;28;20029;-71
2023/09/25 02:49:49;;;;;;;3.42;3.13;;;;;;;13.48;67.17;99020.09;5049432;28;20076;-71
2023/09/25 02:52:15;;;;;;;4.25;3.00;;;;;;;13.50;66.81;99009.84;5045355;28;20032;-71
2023/09/25 02:54:40;;;;;;;3.95;2.72;;;;;;;13.46;67.08;99004.13;5041860;28;20096;-70
2023/09/25 02:57:06;;;;;;;3.63;3.20;;;;;;;13.47;67.44;99013.84;5052689;28;20027;-69
2023/09/25 02:59:33;;;;;;;4.00;3.00;;;;;;;13.47;66.87;99008.44;5049296;28;20124;-69
2023/09/25 03:01:58;;;;;;;4.35;3.45;;;;;;;13.26;67.36;98973.97;5066345;28;20120;-70
2023/09/25 03:04:25;;;;;;;3.22;2.92;;;;;;;13.42;67.41;99011.06;5070074;28;20424;-69
2023/09/25 03:06:51;;;;;;;4.70;3.25;;;;;;;13.38;67.09;99009.91;5052624;28;20445;-71
2023/09/25 03:09:17;;;;;;;4.65;3.35;;;;;;;13.29;67.28;98995.13;5069538;28;20457;-72
2023/09/25 03:11:44;;;;;;;3.63;3.33;;;;;;;13.29;67.60;98992.41;5052218;28;20108;-71
2023/09/25 03:14:09;;;;;;;4.00;3.70;;;;;;;13.32;67.70;99016.28;5052113;28;20127;-72
2023/09/25 03:16:35;;;;;;;4.53;3.40;;;;;;;13.25;68.02;98993.97;5070424;28;20032;-70
2023/09/25 03:19:00;;;;;;;3.88;3.53;;;;;;;13.33;68.07;99007.09;5070368;28;20036;-71
2023/09/25 03:21:26;;;;;;;3.75;3.38;;;;;;;13.27;67.38;99007.25;5052276;28;20031;-72
2023/09/25 03:23:51;;;;;;;3.60;3.30;;;;;;;13.22;68.12;99004.44;5070082;28;20039;-71
2023/09/25 03:26:19;;;;;;;4.53;3.50;;;;;;;13.32;67.65;99010.88;5052492;28;20029;-73
2023/09/25 03:28:45;;;;;;;4.07;3.67;;;;;;;13.30;68.31;99018.44;5035755;28;20039;-70
2023/09/25 03:31:11;;;;;;;4.50;4.10;;;;;;;13.27;68.05;99013.50;5040459;28;20028;-71
2023/09/25 03:33:37;;;;;;;4.07;3.67;;;;;;;13.20;68.46;99006.56;5055623;28;20037;-73
2023/09/25 03:36:04;;;;;;;4.90;3.80;;;;;;;13.30;67.85;99023.84;5055267;28;20147;-73
2023/09/25 03:38:30;;;;;;;4.25;3.67;;;;;;;13.16;68.19;99003.53;5052597;28;20127;-73
2023/09/25 03:40:55;;;;;;;4.30;3.90;;;;;;;13.23;68.26;99033.97;5051920;28;20056;-72
2023/09/25 03:43:21;;;;;;;4.45;3.72;;;;;;;13.25;68.17;99026.44;5073876;28;20100;-72
2023/09/25 03:45:47;;;;;;;4.40;4.00;;;;;;;13.17;68.37;99034.91;5051984;28;20103;-71
2023/09/25 03:48:13;;;;;;;6.68;4.00;;;;;;;13.02;68.75;99023.78;5045448;28;20041;-71
2023/09/25 03:50:39;;;;;;;4.53;4.13;;;;;;;12.91;69.13;99038.13;5055066;28;20066;-73
2023/09/25 03:53:04;;;;;;;4.53;4.10;;;;;;;12.76;68.86;99016.19;5052305;28;20029;-72
2023/09/25 03:55:30;;;;;;;4.60;4.20;;;;;;;12.71;69.29;99025.03;5067836;28;20484;-71
2023/09/25 03:57:55;;;;;;;5.75;4.50;;;;;;;12.68;69.86;99035.47;5055694;28;20082;-72
2023/09/25 04:00:22;;;;;;;6.07;4.78;;;;;;;12.61;70.17;99040.19;5054762;28;20555;-72
2023/09/25 04:02:48;;;;;;;5.55;5.05;;;;;;;12.44;71.11;99038.19;5052181;28;20029;-71
2023/09/25 04:05:13;;;;;;;5.30;4.80;;;;;;;12.27;71.27;99029.19;5068939;28;21480;-71
2023/09/25 04:07:39;;;;;;;5.70;4.38;;;;;;;12.29;71.71;99034.34;5073255;28;20033;-71
2023/09/25 04:10:07;;;;;;;5.70;5.20;;;;;;;12.32;71.52;99037.38;5073264;28;20028;-71
2023/09/25 04:12:34;;;;;;;6.32;5.10;;;;;;;12.14;72.38;99034.78;5073185;28;20076;-72
2023/09/25 04:15:00;;;;;;;5.40;4.82;;;;;;;12.26;71.92;99041.03;5055031;28;20024;-72
2023/09/25 04:17:25;;;;;;;6.07;5.28;;;;;;;12.30;71.83;99049.47;5073245;28;20094;-73
2023/09/25 04:19:51;;;;;;;5.90;4.72;;;;;;;12.30;72.15;99044.91;5055105;28;20636;-72
2023/09/25 04:22:16;;;;;;;6.13;5.38;;;;;;;12.33;71.64;99039.03;5055210;28;20032;-71
2023/09/25 04:24:42;;;;;;;5.10;4.60;;;;;;;12.30;71.81;99030.56;5053615;28;20112;-71
2023/09/25 04:27:09;;;;;;;5.25;4.75;;;;;;;12.30;72.10;99023.28;5054979;28;20492;-72
2023/09/25 04:29:35;;;;;;;5.25;4.55;;;;;;;12.41;71.60;99044.09;5053871;28;20683;-72
2023/09/25 04:32:03;;;;;;;5.63;4.63;;;;;;;12.41;71.80;99046.78;5072687;28;20043;-69
2023/09/25 04:34:29;;;;;;;5.68;4.53;;;;;;;12.31;71.91;99034.91;5072366;28;20032;-70
2023/09/25 04:36:54;;;;;;;5.40;4.50;;;;;;;12.29;72.17;99037.88;5051605;28;20089;-71
2023/09/25 04:39:20;;;;;;;5.75;4.00;;;;;;;12.25;71.97;99030.47;5050324;28;20025;-71
2023/09/25 04:41:46;;;;;;;5.20;4.60;;;;;;;12.19;72.14;99026.81;5072469;28;20055;-70
2023/09/25 04:44:11;;;;;;;5.40;4.90;;;;;;;12.18;72.37;99027.84;5054328;28;20024;-69
2023/09/25 04:46:37;;;;;;;6.22;5.40;;;;;;;12.23;72.43;99044.19;5051360;28;20043;-69
2023/09/25 04:49:06;;;;;;;7.13;4.95;;;;;;;12.18;72.53;99035.94;5068865;28;20112;-70
2023/09/25 04:51:32;;;;;;;6.40;5.15;;;;;;;12.20;72.09;99033.88;5054997;28;20131;-70
2023/09/25 04:53:57;;;;;;;5.38;4.88;;;;;;;12.21;72.73;99040.06;5071939;28;20059;-70
2023/09/25 04:56:23;;;;;;;6.15;5.35;;;;;;;12.11;72.64;99029.84;5072417;28;20064;-69
2023/09/25 04:58:48;;;;;;;6.45;5.30;;;;;;;12.26;72.93;99051.00;5054448;28;20024;-73
2023/09/25 05:01:14;;;;;;;5.90;5.35;;;;;;;12.21;73.11;99045.47;5054467;28;20080;-71
2023/09/25 05:03:40;;;;;;;6.18;5.57;;;;;;;12.06;72.87;99032.44;5065969;28;20038;-70
2023/09/25 05:06:07;;;;;;;5.90;5.18;;;;;;;12.06;72.51;99032.44;5053591;28;20045;-70
2023/09/25 05:08:33;;;;;;;6.75;5.18;;;;;;;12.04;72.81;99039.94;5037552;28;20033;-70
2023/09/25 05:10:58;;;;;;;5.97;5.45;;;;;;;12.08;72.94;99046.53;5066928;28;20054;-71
2023/09/25 05:13:24;;;;;;;6.93;5.97;;;;;;;12.13;73.53;99049.38;5071954;28;20503;-73
2023/09/25 05:15:49;;;;;;;7.07;6.13;;;;;;;12.01;73.90;99032.31;5071402;28;20507;-72
2023/09/25 05:18:14;;;;;;;6.53;5.93;;;;;;;12.14;73.22;99045.59;5050817;28;20016;-71
2023/09/25 05:20:40;;;;;;;6.10;5.55;;;;;;;12.07;72.99;99034.06;5032642;28;20044;-72
2023/09/25 05:23:05;;;;;;;6.43;5.82;;;;;;;12.14;72.90;99029.38;5071826;28;20028;-73
2023/09/25 05:25:30;;;;;;;5.90;5.32;;;;;;;12.10;73.51;99022.81;5050265;28;20546;-74
2023/09/25 05:27:57;;;;;;;5.93;5.25;;;;;;;12.24;73.18;99051.25;5067524;28;20032;-73
2023/09/25 05:30:23;;;;;;;6.45;5.55;;;;;;;12.30;72.97;99053.00;5053821;28;20480;-73
2023/09/25 05:32:50;;;;;;;5.82;5.32;;;;;;;12.33;72.96;99055.25;5052626;28;20025;-73
2023/09/25 05:35:17;;;;;;;5.38;4.93;;;;;;;12.31;73.10;99057.34;5033622;28;20048;-73
2023/09/25 05:37:45;;;;;;;6.55;5.32;;;;;;;12.36;73.47;99054.78;5049625;28;20028;-73
2023/09/25 05:40:11;;;;;;;6.07;5.47;;;;;;;12.31;73.33;99041.16;5071593;28;20130;-73
2023/09/25 05:42:42;;;;;;;6.10;5.60;;;;;;;12.37;72.84;99039.38;5071380;28;20032;-73
2023/09/25 05:45:08;;;;;;;6.15;5.53;;;;;;;12.38;72.99;99047.25;5036780;28;20091;-73
2023/09/25 05:47:34;;;;;;;6.20;5.60;;;;;;;12.35;73.00;99042.31;5036893;28;20028;-73
2023/09/25 05:50:00;;;;;;;6.32;5.68;;;;;;;12.52;73.19;99064.03;5050083;28;20037;-73
2023/09/25 05:52:25;;;;;;;6.15;5.35;;;;;;;12.54;73.08;99064.63;5068402;28;20029;-73
2023/09/25 05:54:51;;;;;;;7.60;5.72;;;;;;;12.62;72.78;99058.06;5036236;28;20579;-74
2023/09/25 05:57:17;;;;;;;9.45;8.45;;;;;;;12.64;72.78;99054.06;5069957;28;20035;-72
2023/09/25 05:59:43;;;;;;;12.20;8.27;;;;;;;12.65;72.53;99058.38;5050035;28;20025;-73
2023/09/25 06:02:08;;;;;;;9.88;7.78;;;;;;;12.57;72.55;99049.81;5050017;28;20846;-72
2023/09/25 06:04:35;;;;;;;10.05;8.10;;;;;;;12.60;71.97;99055.59;5052856;28;20075;-72
2023/09/25 06:07:00;;;;;;;9.52;8.52;;;;;;;12.62;71.74;99063.47;5071074;28;20030;-72
2023/09/25 06:09:26;;;;;;;7.60;6.80;;;;;;;12.49;71.94;99043.72;5070254;28;20040;-73
2023/09/25 06:11:51;;;;;;;6.75;5.72;;;;;;;12.45;72.95;99037.16;5049720;28;20028;-73
2023/09/25 06:14:16;;;;;;;6.43;5.20;;;;;;;12.60;72.39;99054.75;5060418;28;20036;-73
2023/09/25 06:16:43;;;;;;;6.10;5.03;;;;;;;12.79;72.42;99069.78;5070901;28;20028;-72
2023/09/25 06:19:08;;;;;;;6.63;5.28;;;;;;;12.78;72.23;99052.75;5070992;28;20043;-73
2023/09/25 06:21:34;;;;;;;5.60;5.00;;;;;;;12.87;72.53;99053.19;5032728;28;20069;-74
2023/09/25 06:23:59;;;;;;;6.05;5.00;;;;;;;12.96;72.18;99049.06;5052608;28;20047;-73
2023/09/25 06:26:27;;;;;;;7.30;5.10;;;;;;;13.13;71.67;99072.47;5070927;28;20081;-75
2023/09/25 06:28:54;;;;;;;4.82;4.25;;;;;;;13.20;71.73;99069.63;5071016;28;20132;-73
2023/09/25 06:31:20;;;;;;;5.28;4.78;;;;;;;13.23;71.13;99061.03;5049852;28;20085;-72
2023/09/25 06:33:45;;;;;;;5.50;4.28;;;;;;;13.37;70.81;99069.69;5070308;28;20048;-74
2023/09/25 06:36:11;;;;;;;4.82;4.35;;;;;;;13.39;70.54;99065.69;5069696;28;20028;-74
2023/09/25 06:38:36;;;;;;;5.57;5.07;;;;;;;13.47;70.51;99072.56;5071002;28;20044;-72
2023/09/25 06:41:02;;;;;;;5.20;4.70;;;;;;;13.46;70.84;99065.53;5036409;28;20083;-74
2023/09/25 06:43:27;;;;;;;4.88;4.30;;;;;;;13.63;70.65;99077.19;5049629;28;20037;-74
2023/09/25 06:45:53;;;;;;;5.00;4.50;;;;;;;13.56;70.33;99054.91;5032306;28;20016;-74
2023/09/25 06:48:18;;;;;;;4.95;4.50;;;;;;;13.75;69.94;99065.25;5069386;28;20029;-74
2023/09/25 06:50:44;;;;;;;6.88;4.43;;;;;;;13.74;69.74;99047.38;5049506;28;20473;-74
2023/09/25 06:53:09;;;;;;;5.38;4.38;;;;;;;13.89;69.18;99065.78;5037236;28;20041;-74
2023/09/25 06:55:35;;;;;;;4.85;4.28;;;;;;;13.89;68.80;99057.66;5028905;28;20024;-74
2023/09/25 06:58:01;;;;;;;5.60;4.45;;;;;;;13.89;68.91;99065.78;5060591;28;20062;-74
2023/09/25 07:00:26;;;;;;;4.90;4.32;;;;;;;14.00;68.80;99066.78;5032699;28;20029;-74
2023/09/25 07:02:52;;;;;;;4.30;3.90;;;;;;;14.06;68.46;99068.50;5039465;28;20093;-74
2023/09/25 07:05:18;;;;;;;4.93;4.30;;;;;;;14.18;68.38;99069.25;5067039;28;20730;-74
2023/09/25 07:07:43;;;;;;;8.00;4.57;;;;;;;14.22;68.91;99059.56;5039091;28;20113;-74
2023/09/25 07:10:10;;;;;;;4.53;4.13;;;;;;;14.27;68.66;99068.59;5056552;28;20052;-73
2023/09/25 07:12:36;;;;;;;4.85;3.90;;;;;;;14.19;68.31;99038.41;5056504;28;20115;-74
2023/09/25 07:15:02;;;;;;;5.25;4.40;;;;;;;14.37;68.45;99059.84;5055871;28;20111;-74
2023/09/25 07:17:28;;;;;;;5.53;4.07;;;;;;;14.44;68.09;99055.06;5056473;28;20037;-74
2023/09/25 07:19:55;;;;;;;5.20;4.10;;;;;;;14.51;67.64;99050.31;5039683;28;20498;-74
2023/09/25 07:22:21;;;;;;;4.72;3.58;;;;;;;14.56;67.32;99055.81;5072917;28;20028;-73
2023/09/25 07:24:47;;;;;;;4.47;3.83;;;;;;;14.58;67.23;99048.22;5039080;28;20035;-74
2023/09/25 07:27:13;;;;;;;5.75;3.92;;;;;;;14.59;67.14;99028.16;5056462;28;20109;-73
2023/09/25 07:29:42;;;;;;;5.38;3.90;;;;;;;14.77;66.92;99052.28;5056262;28;20494;-72
2023/09/25 07:32:07;;;;;;;5.32;3.63;;;;;;;14.82;67.32;99052.34;5056193;28;20036;-74
2023/09/25 07:34:32;;;;;;;5.00;3.97;;;;;;;14.79;67.02;99039.31;5040092;28;20047;-72
2023/09/25 07:36:59;;;;;;;5.60;3.63;;;;;;;14.86;66.51;99044.56;5059874;28;20040;-75
2023/09/25 07:39:26;;;;;;;3.78;3.47;;;;;;;14.97;66.79;99047.16;5061101;28;20043;-73
2023/09/25 07:41:52;;;;;;;4.05;3.50;;;;;;;15.05;66.24;99046.69;5077804;28;20032;-74
2023/09/25 07:44:18;;;;;;;4.07;3.50;;;;;;;14.97;66.07;99017.31;5060549;28;20028;-73
2023/09/25 07:46:44;;;;;;;3.63;3.15;;;;;;;15.15;65.84;99049.53;5043454;28;20404;-73
2023/09/25 07:49:09;;;;;;;4.70;3.80;;;;;;;15.25;65.78;99051.56;5077817;28;20039;-74
2023/09/25 07:51:35;;;;;;;4.82;3.55;;;;;;;15.31;65.52;99060.59;5057653;28;20048;-74
2023/09/25 07:54:02;;;;;;;5.20;3.40;;;;;;;15.31;65.22;99052.44;5060850;28;20029;-74
2023/09/25 07:56:28;;;;;;;4.63;3.50;;;;;;;15.38;64.86;99047.63;5055976;28;20025;-74
2023/09/25 07:58:55;;;;;;;3.80;3.17;;;;;;;15.49;64.78;99046.69;5056374;28;20477;-73
2023/09/25 08:01:22;;;;;;;4.30;3.33;;;;;;;15.46;64.57;99041.78;5073914;28;20033;-74
2023/09/25 08:03:53;;;;;;;4.22;2.83;;;;;;;15.43;63.99;99023.25;5073260;28;20013;-73
2023/09/25 08:06:21;;;;;;;3.70;3.38;;;;;;;15.51;64.01;99026.38;5073449;28;20076;-73
2023/09/25 08:08:46;;;;;;;4.50;3.15;;;;;;;15.70;63.66;99030.38;5047281;28;20086;-74
2023/09/25 08:11:15;;;;;;;2.95;2.75;;;;;;;15.80;63.42;99040.47;5055419;28;20032;-73
2023/09/25 08:13:40;;;;;;;3.42;3.10;;;;;;;15.80;63.62;99027.72;5072762;28;20025;-73
2023/09/25 08:16:06;;;;;;;3.70;2.90;;;;;;;15.91;63.24;99028.66;5055173;28;20044;-74
2023/09/25 08:18:31;;;;;;;3.97;2.80;;;;;;;16.00;63.39;99029.81;5038083;28;20503;-73
2023/09/25 08:20:57;;;;;;;3.90;2.80;;;;;;;16.18;63.30;99047.63;5055187;28;20071;-72
2023/09/25 08:23:22;;;;;;;4.20;2.80;;;;;;;16.20;62.70;99045.47;5072886;28;20031;-74
2023/09/25 08:25:48;;;;;;;4.88;2.88;;;;;;;16.21;62.11;99039.78;5054653;28;20071;-73
2023/09/25 08:28:14;;;;;;;5.03;3.00;;;;;;;16.26;62.26;99047.16;5055033;28;20035;-74
2023/09/25 08:30:40;;;;;;;3.55;2.85;;;;;;;16.35;61.84;99038.25;5038601;28;20036;-74
2023/09/25 08:33:05;;;;;;;4.88;2.92;;;;;;;16.33;61.40;99035.00;5054633;28;20025;-74
2023/09/25 08:35:31;;;;;;;3.30;2.50;;;;;;;16.51;61.28;99050.91;5037910;28;20104;-74
2023/09/25 08:37:56;;;;;;;3.60;3.10;;;;;;;16.49;60.92;99039.44;5072723;28;20392;-74
2023/09/25 08:40:21;;;;;;;3.38;2.58;;;;;;;16.63;60.55;99056.16;5072718;28;20036;-74
2023/09/25 08:42:48;;;;;;;4.35;2.80;;;;;;;16.64;60.75;99052.34;5072855;28;20020;-73
2023/09/25 08:45:15;;;;;;;2.97;2.63;;;;;;;16.76;60.41;99055.69;5052311;28;20032;-74
2023/09/25 08:47:41;;;;;;;4.38;2.72;;;;;;;16.81;59.87;99065.78;5033442;28;20033;-74
2023/09/25 08:50:08;;;;;;;3.75;2.90;;;;;;;16.85;59.55;99047.84;5043000;28;20072;-74
2023/09/25 08:52:33;;;;;;;4.88;2.75;;;;;;;16.78;59.23;99026.31;5049583;28;20025;-75
2023/09/25 08:54:59;;;;;;;4.22;2.70;;;;;;;16.90;59.21;99045.13;5029523;28;20036;-73
2023/09/25 08:57:24;;;;;;;2.75;2.50;;;;;;;17.02;59.08;99046.56;5051161;28;20025;-72
2023/09/25 08:59:52;;;;;;;3.15;2.50;;;;;;;17.10;59.18;99045.25;5046384;28;20083;-74
2023/09/25 09:02:18;;;;;;;3.58;2.80;;;;;;;17.19;58.89;99040.94;5072261;28;20446;-74
2023/09/25 09:04:44;;;;;;;3.58;2.60;;;;;;;17.23;58.57;99040.13;5050723;28;20116;-74
2023/09/25 09:07:10;;;;;;;2.55;2.33;;;;;;;17.31;58.40;99030.63;5053266;28;20035;-73
2023/09/25 09:09:35;;;;;;;6.10;2.40;;;;;;;17.49;58.73;99042.94;5037524;28;20035;-74
2023/09/25 09:12:02;;;;;;;3.35;2.58;;;;;;;17.61;58.24;99046.28;5055845;28;20025;-73
2023/09/25 09:14:40;;;;;;;3.35;2.60;;;;;;;17.58;57.54;99039.44;5054562;28;20064;-74
2023/09/25 09:17:07;;;;;;;3.28;2.58;;;;;;;17.65;57.72;99031.84;5049289;28;20056;-74
2023/09/25 09:19:50;;;;;;;3.67;2.30;;;;;;;17.72;57.13;99032.41;5053997;28;20460;-73
2023/09/25 09:22:18;;;;;;;4.75;2.38;;;;;;;17.87;57.06;99034.34;5054338;28;20040;-74
2023/09/25 09:24:45;;;;;;;3.33;2.00;;;;;;;17.77;56.92;99017.97;5053955;28;20071;-74
2023/09/25 09:27:11;;;;;;;3.05;2.17;;;;;;;17.86;56.01;99017.16;5054037;28;20488;-74
2023/09/25 09:29:45;;;;;;;3.38;2.10;;;;;;;18.08;55.98;99030.53;5052923;28;20044;-74
2023/09/25 09:32:11;;;;;;;3.40;2.30;;;;;;;18.10;55.96;99024.81;5053752;28;20040;-74
2023/09/25 09:34:38;;;;;;;3.45;2.40;;;;;;;18.18;56.13;99024.25;5053497;28;20027;-74
2023/09/25 09:37:08;;;;;;;3.15;2.33;;;;;;;18.27;55.67;99028.06;5054051;28;20041;-74
2023/09/25 09:39:37;;;;;;;2.33;1.95;;;;;;;18.28;55.28;99029.69;5053806;28;20030;-74
2023/09/25 09:42:08;;;;;;;3.70;2.17;;;;;;;18.35;54.48;99019.31;5054164;28;20464;-74
2023/09/25 09:44:33;;;;;;;3.05;2.00;;;;;;;18.41;54.12;99029.16;5036950;28;20064;-73
2023/09/25 09:47:04;;;;;;;2.88;2.20;;;;;;;18.46;53.79;99023.72;5037777;28;20112;-74
2023/09/25 09:49:32;;;;;;;3.35;2.17;;;;;;;18.49;53.28;99013.06;5036976;28;20098;-74
2023/09/25 09:52:00;;;;;;;2.15;1.95;;;;;;;18.56;52.55;99008.16;5046998;28;20381;-74
2023/09/25 09:54:26;;;;;;;3.28;2.00;;;;;;;18.60;52.35;99005.66;5049680;28;20029;-74
2023/09/25 09:56:52;;;;;;;3.13;2.20;;;;;;;18.65;52.14;99010.31;5044415;28;20032;-73
2023/09/25 09:59:17;;;;;;;4.63;2.03;;;;;;;18.79;52.04;99019.53;5053029;28;20036;-75
2023/09/25 10:01:45;;;;;;;2.75;2.20;;;;;;;18.73;52.06;99018.75;5050924;28;20477;-74
2023/09/25 10:04:11;;;;;;;3.10;2.28;;;;;;;18.69;51.70;98998.56;5052667;28;20024;-75
2023/09/25 10:06:46;;;;;;;2.75;1.88;;;;;;;18.95;50.64;99012.97;5052422;28;20831;-74
2023/09/25 10:09:11;;;;;;;3.85;2.30;;;;;;;18.89;50.38;99003.13;5051842;28;20447;-74
2023/09/25 10:11:37;;;;;;;3.63;1.90;;;;;;;18.98;52.36;98996.00;5035913;28;20111;-74
2023/09/25 10:14:05;;;;;;;2.97;2.08;;;;;;;19.19;51.63;99009.28;5052171;28;20037;-74
2023/09/25 10:16:51;;;;;;;4.03;2.03;;;;;;;19.20;50.86;99010.94;5035594;28;20400;-74
2023/09/25 10:19:20;;;;;;;2.63;2.15;;;;;;;19.18;50.67;99006.84;5053175;28;20044;-74
2023/09/25 10:22:17;;;;;;;4.22;2.60;;;;;;;19.13;50.25;99007.69;5052967;28;20032;-73
2023/09/25 10:24:43;;;;;;;3.45;2.55;;;;;;;19.20;50.61;99005.47;5049712;28;20409;-73
2023/09/25 10:27:14;;;;;;;2.30;2.10;;;;;;;19.19;50.75;98995.66;5053084;28;20039;-74
2023/09/25 10:30:11;;;;;;;3.80;2.17;;;;;;;19.30;50.37;98997.22;5052974;28;20116;-76
2023/09/25 10:32:40;;;;;;;2.83;2.22;;;;;;;19.36;49.88;99002.69;5070905;28;20120;-74
2023/09/25 10:35:37;;;;;;;2.88;2.08;;;;;;;19.44;50.02;99004.84;5052888;28;20024;-74
2023/09/25 10:38:10;;;;;;;3.92;2.03;;;;;;;19.42;49.80;98994.19;5052888;28;20036;-74
2023/09/25 10:40:36;;;;;;;3.80;2.00;;;;;;;19.54;49.86;99007.50;5053949;28;20039;-75
2023/09/25 10:43:03;;;;;;;3.95;2.50;;;;;;;19.39;48.89;98988.47;5056094;28;20087;-74
2023/09/25 10:45:28;;;;;;;3.20;1.80;;;;;;;19.58;49.32;99009.38;5036493;28;20092;-75
2023/09/25 10:47:53;;;;;;;4.20;2.25;;;;;;;19.66;48.70;99003.34;5025865;28;20024;-74
2023/09/25 10:50:19;;;;;;;4.13;2.00;;;;;;;19.77;48.75;99004.06;5053693;28;20048;-75
2023/09/25 10:52:44;;;;;;;3.83;2.22;;;;;;;19.91;49.22;98994.13;5053415;28;20040;-74
2023/09/25 10:55:10;;;;;;;4.35;1.92;;;;;;;19.76;48.46;98964.19;5067802;28;20381;-74
2023/09/25 10:57:36;;;;;;;4.50;2.10;;;;;;;19.96;48.10;98994.09;5053470;28;20571;-74
2023/09/25 11:00:09;;;;;;;2.08;1.88;;;;;;;20.01;48.08;98988.56;5030522;28;20029;-74
2023/09/25 11:02:34;;;;;;;2.97;2.10;;;;;;;19.93;47.80;98991.91;5074622;28;20056;-75
2023/09/25 11:05:02;;;;;;;3.50;2.08;;;;;;;20.00;47.67;98987.75;5053709;28;20059;-74
2023/09/25 11:07:27;;;;;;;2.70;2.15;;;;;;;20.04;48.02;98993.47;5053080;28;20037;-74
2023/09/25 11:09:53;;;;;;;3.20;2.20;;;;;;;20.05;47.82;98986.91;5068762;28;20024;-74
2023/09/25 11:12:18;;;;;;;3.72;1.90;;;;;;;20.13;47.43;98988.19;5074269;28;20040;-74
2023/09/25 11:14:44;;;;;;;3.47;1.80;;;;;;;20.08;47.21;98972.66;5039213;28;20025;-74
2023/09/25 11:17:09;;;;;;;2.63;2.20;;;;;;;20.23;47.22;98986.25;5056372;28;20124;-74
2023/09/25 11:19:34;;;;;;;3.17;2.08;;;;;;;20.06;47.43;98961.19;5056403;28;20044;-74
2023/09/25 11:22:01;;;;;;;2.50;2.03;;;;;;;20.28;46.81;98988.91;5056155;28;20041;-74
2023/09/25 11:24:28;;;;;;;3.28;1.92;;;;;;;20.25;46.75;98964.88;5070740;28;20666;-75
2023/09/25 11:26:54;;;;;;;2.25;2.03;;;;;;;20.34;46.68;98976.81;5055880;28;20036;-73
2023/09/25 11:29:19;;;;;;;2.42;2.00;;;;;;;20.42;46.97;98978.91;5055807;28;20021;-74
2023/09/25 11:31:44;;;;;;;4.68;1.90;;;;;;;20.39;46.63;98976.78;5055852;28;20447;-75